Urb Ponce de Leon, Puerto Rico
Current Conditions -  °F | °C
As of 10:56 AM on Sunday 21 Dec 2014 (Local Time) from TJSJ Reporting Station
Scattered Clouds Scattered Clouds  
Wind Chill: 83°   Ceiling: Unl
Heat Index: 86°   Visibility: 10mi
Dew Point: 69°   Wind: 13mph
Humidity: 63%   Direction: 70°ENE
Pressure: 30.1"   Gusts: NA
Location:  18.3866°N, 66.1135°W
Report Text: TJSJ 211456Z 07011KT 10SM SCT034 28/21 A3010 RMK AO2 SLP192 T02830206 50013
Loading
Personal Weather Stations






























Interactive Weather Map New forecast layout! Learn more

10-Day Weather Forecast

Advertisements
Track Severe Weather on mobile